Time;durP1;ratioP1;P1;durP2;ratioP2;P2;SDS_P1;SDS_P2;PMS_P1;PMS_P2;Temp;Humidity;BMP_temperature;BMP_pressure;BME280_temperature;BME280_humidity;BME280_pressure;Samples;Min_cycle;Max_cycle;Signal;HPM_P1;HPM_P2
2023/09/18 00:00:26;;;;;;;;;;;;;;;15.42;100.00;100779.41;5063016;28;20068;-87
2023/09/18 00:03:12;;;;;;;;;;;;;;;15.43;100.00;100770.44;5061733;28;20005;-85
2023/09/18 00:05:58;;;;;;;;;;;;;;;15.42;100.00;100768.72;5062466;28;19968;-85
2023/09/18 00:08:44;;;;;;;;;;;;;;;15.39;100.00;100752.91;5060717;28;19929;-84
2023/09/18 00:11:29;;;;;;;;;;;;;;;15.37;100.00;100736.16;5034390;28;19935;-85
2023/09/18 00:14:15;;;;;;;;;;;;;;;15.37;100.00;100733.50;5061149;28;19950;-87
2023/09/18 00:17:01;;;;;;;;;;;;;;;15.35;100.00;100725.59;5048714;28;20019;-87
2023/09/18 00:19:51;;;;;;;;;;;;;;;15.33;100.00;100715.06;5060361;28;19970;-87
2023/09/18 00:22:37;;;;;;;;;;;;;;;15.31;100.00;100697.44;5047932;28;19932;-87
2023/09/18 00:25:22;;;;;;;;;;;;;;;15.28;100.00;100693.16;5034353;28;20024;-87
2023/09/18 00:28:08;;;;;;;;;;;;;;;15.27;100.00;100685.25;5053924;28;19928;-88
2023/09/18 00:30:54;;;;;;;;;;;;;;;15.29;100.00;100678.00;5050053;28;20288;-90
2023/09/18 00:33:43;;;;;;;;;;;;;;;15.29;100.00;100660.19;5061249;28;21532;-87
2023/09/18 00:36:28;;;;;;;;;;;;;;;15.32;100.00;100661.81;5060610;28;20047;-88
2023/09/18 00:39:15;;;;;;;;;;;;;;;15.34;100.00;100652.75;5058247;28;20309;-87
2023/09/18 00:42:01;;;;;;;;;;;;;;;15.37;100.00;100650.81;5062134;28;19932;-87
2023/09/18 00:44:46;;;;;;;;;;;;;;;15.38;100.00;100642.72;5034462;28;21164;-86
2023/09/18 00:47:32;;;;;;;;;;;;;;;15.38;100.00;100634.72;5061800;28;19960;-88
2023/09/18 00:50:18;;;;;;;;;;;;;;;15.39;100.00;100624.88;5047208;28;19969;-86
2023/09/18 00:53:03;;;;;;;;;;;;;;;15.42;100.00;100625.53;5062329;28;20540;-87
2023/09/18 00:55:50;;;;;;;;;;;;;;;15.45;100.00;100614.66;5060359;28;20506;-86
2023/09/18 00:58:36;;;;;;;;;;;;;;;15.48;100.00;100610.94;5057583;28;20929;-86
2023/09/18 01:01:24;;;;;;;;;;;;;;;15.49;100.00;100609.97;5048975;28;19924;-86
2023/09/18 01:04:10;;;;;;;;;;;;;;;15.49;100.00;100596.63;5060743;28;19940;-86
2023/09/18 01:06:57;;;;;;;;;;;;;;;15.50;100.00;100594.78;5033207;28;20394;-85
2023/09/18 01:09:43;;;;;;;;;;;;;;;15.50;100.00;100589.47;5064690;28;19932;-87
2023/09/18 01:12:34;;;;;;;;;;;;;;;15.50;100.00;100589.47;5049136;28;19924;-87
2023/09/18 01:15:19;;;;;;;;;;;;;;;15.51;100.00;100589.34;5050236;28;19928;-86
2023/09/18 01:18:05;;;;;;;;;;;;;;;15.51;100.00;100592.03;5062059;28;19925;-86
2023/09/18 01:20:51;;;;;;;;;;;;;;;15.53;100.00;100587.41;5046197;28;19935;-86
2023/09/18 01:23:36;;;;;;;;;;;;;;;15.55;100.00;100577.53;5048091;28;19932;-86
2023/09/18 01:26:22;;;;;;;;;;;;;;;15.55;100.00;100574.84;5046006;28;20442;-86
2023/09/18 01:29:07;;;;;;;;;;;;;;;15.56;100.00;100570.34;5058435;28;20367;-87
2023/09/18 01:31:54;;;;;;;;;;;;;;;15.55;100.00;100569.50;5060842;28;20402;-87
2023/09/18 01:34:50;;;;;;;;;;;;;;;15.57;100.00;100562.25;5058307;28;19928;-86
2023/09/18 01:37:35;;;;;;;;;;;;;;;15.57;100.00;100553.38;5046100;28;19928;-87
2023/09/18 01:40:21;;;;;;;;;;;;;;;15.58;100.00;100539.94;5059929;28;19928;-87
2023/09/18 01:43:07;;;;;;;;;;;;;;;15.58;100.00;100529.25;5061052;28;20314;-86
2023/09/18 01:45:53;;;;;;;;;;;;;;;15.57;100.00;100527.56;5047604;28;20018;-87
2023/09/18 01:49:00;;;;;;;;;;;;;;;15.57;100.00;100530.22;5055792;28;19981;-87
2023/09/18 01:51:52;;;;;;;;;;;;;;;15.56;100.00;100525.00;5083948;28;19944;-88
2023/09/18 01:54:41;;;;;;;;;;;;;;;15.55;100.00;100517.97;5071874;28;19935;-87
2023/09/18 01:57:29;;;;;;;;;;;;;;;15.55;100.00;100520.63;5066623;28;19932;-88
2023/09/18 02:06:13;;;;;;;;;;;;;;;15.58;100.00;100513.25;6106460;22;19915;-87
2023/09/18 02:08:59;;;;;;;;;;;;;;;15.61;100.00;100518.38;5081904;28;19928;-88
2023/09/18 02:11:48;;;;;;;;;;;;;;;15.65;100.00;100511.00;5092165;28;19931;-88
2023/09/18 02:24:53;;;;;;;;;;;;;;;15.73;100.00;100481.94;5353090;22;19928;-86
2023/09/18 02:27:42;;;;;;;;;;;;;;;15.74;100.00;100472.09;5063276;28;20882;-87
2023/09/18 02:30:28;;;;;;;;;;;;;;;15.77;100.00;100466.56;5060492;28;19929;-87
2023/09/18 02:33:14;;;;;;;;;;;;;;;15.79;100.00;100466.47;5065688;28;20353;-87
2023/09/18 02:36:00;;;;;;;;;;;;;;;15.81;100.00;100460.03;5050415;28;19932;-86
2023/09/18 02:38:49;;;;;;;;;;;;;;;15.84;100.00;100464.28;5052131;28;20011;-85
2023/09/18 02:41:35;;;;;;;;;;;;;;;15.85;100.00;100453.50;5076233;28;19927;-86
2023/09/18 02:44:20;;;;;;;;;;;;;;;15.88;100.00;100444.41;5044133;28;19928;-86
2023/09/18 02:47:06;;;;;;;;;;;;;;;15.88;100.00;100445.28;5069513;28;20619;-89
2023/09/18 02:49:54;;;;;;;;;;;;;;;15.91;100.00;100438.81;5073708;28;19935;-87
2023/09/18 02:52:52;;;;;;;;;;;;;;;15.92;100.00;100445.94;5033436;28;20015;-89
2023/09/18 02:55:38;;;;;;;;;;;;;;;15.94;100.00;100437.78;5054737;28;21905;-87
2023/09/18 02:58:31;;;;;;;;;;;;;;;15.94;100.00;100421.78;5057642;28;19930;-87
2023/09/18 03:01:17;;;;;;;;;;;;;;;15.94;100.00;100427.09;5058760;28;19961;-88
2023/09/18 03:04:05;;;;;;;;;;;;;;;15.92;100.00;100413.91;5069790;28;19966;-91
2023/09/18 03:06:53;;;;;;;;;;;;;;;15.95;100.00;100399.47;5068598;28;19929;-87
2023/09/18 03:09:43;;;;;;;;;;;;;;;15.97;100.00;100394.84;5045313;28;19924;-86
2023/09/18 03:12:28;;;;;;;;;;;;;;;15.98;100.00;100386.75;5047010;28;19928;-88
2023/09/18 03:15:14;;;;;;;;;;;;;;;15.98;100.00;100381.41;5059140;28;19973;-88
2023/09/18 03:18:00;;;;;;;;;;;;;;;15.98;100.00;100373.41;5038273;28;19933;-87
2023/09/18 03:20:46;;;;;;;;;;;;;;;15.99;100.00;100367.09;5039260;28;19929;-88
2023/09/18 03:23:32;;;;;;;;;;;;;;;16.02;100.00;100355.31;5064621;28;19977;-87
2023/09/18 03:26:17;;;;;;;;;;;;;;;16.02;100.00;100334.81;5039169;28;19928;-87
2023/09/18 03:29:03;;;;;;;;;;;;;;;16.05;100.00;100330.19;5046783;28;19928;-86
2023/09/18 03:31:49;;;;;;;;;;;;;;;16.05;100.00;100323.03;5037747;28;20023;-88
2023/09/18 03:34:35;;;;;;;;;;;;;;;16.07;100.00;100318.41;5047349;28;20336;-88
2023/09/18 03:37:21;;;;;;;;;;;;;;;16.09;100.00;100310.31;5033918;28;19939;-87
2023/09/18 03:40:07;;;;;;;;;;;;;;;16.09;100.00;100300.50;5045797;28;21047;-87
2023/09/18 03:42:52;;;;;;;;;;;;;;;16.11;100.00;100279.84;5051561;28;19951;-86
2023/09/18 03:45:40;;;;;;;;;;;;;;;16.12;100.00;100270.88;5033237;28;20074;-88
2023/09/18 03:48:26;;;;;;;;;;;;;;;16.14;100.00;100268.91;5030123;28;19928;-87
2023/09/18 03:51:15;;;;;;;;;;;;;;;16.15;100.00;100269.78;5037764;28;19986;-84
2023/09/18 03:54:01;;;;;;;;;;;;;;;16.17;100.00;100264.31;5022200;28;20464;-87
2023/09/18 03:56:46;;;;;;;;;;;;;;;16.17;100.00;100241.13;5046538;28;20300;-87
2023/09/18 03:59:32;;;;;;;;;;;;;;;16.20;100.00;100229.34;5030189;28;19935;-88
2023/09/18 04:02:18;;;;;;;;;;;;;;;16.23;100.00;100231.78;5045766;28;19936;-87
2023/09/18 04:05:04;;;;;;;;;;;;;;;16.25;100.00;100227.19;5038905;28;19928;-85
2023/09/18 04:07:51;;;;;;;;;;;;;;;16.26;100.00;100223.53;5028567;28;19982;-87
2023/09/18 04:10:45;;;;;;;;;;;;;;;16.27;100.00;100227.91;5054578;28;19935;-88
2023/09/18 04:13:30;;;;;;;;;;;;;;;16.27;100.00;100214.53;5058301;28;20013;-88
2023/09/18 04:16:18;;;;;;;;;;;;;;;16.29;100.00;100218.78;5058969;28;19982;-89
2023/09/18 04:19:04;;;;;;;;;;;;;;;16.33;100.00;100213.22;5046975;28;19967;-89
2023/09/18 04:21:53;;;;;;;;;;;;;;;16.33;100.00;100211.38;5059824;28;19924;-89
2023/09/18 04:24:42;;;;;;;;;;;;;;;16.34;100.00;100202.38;5042421;28;19947;-87
2023/09/18 04:27:28;;;;;;;;;;;;;;;16.34;100.00;100194.38;5039508;28;19969;-86
2023/09/18 04:30:13;;;;;;;;;;;;;;;16.35;100.00;100187.22;5040320;28;20403;-88
2023/09/18 04:32:59;;;;;;;;;;;;;;;16.34;100.00;100186.38;5066399;28;19935;-89
2023/09/18 04:35:48;;;;;;;;;;;;;;;16.34;100.00;100178.34;5067882;28;19939;-87
2023/09/18 04:38:42;;;;;;;;;;;;;;;16.35;100.00;100180.03;5054815;28;20647;-89
2023/09/18 04:41:28;;;;;;;;;;;;;;;16.35;100.00;100164.03;5040100;28;19931;-88
2023/09/18 04:44:14;;;;;;;;;;;;;;;16.35;100.00;100169.38;5049683;28;19985;-87
2023/09/18 04:47:03;;;;;;;;;;;;;;;16.35;100.00;100166.69;5063094;28;19928;-84
2023/09/18 04:49:49;;;;;;;;;;;;;;;16.36;100.00;100155.06;5057976;28;19925;-87
2023/09/18 04:52:34;;;;;;;;;;;;;;;16.38;100.00;100161.13;5056062;28;19928;-87
2023/09/18 04:55:21;;;;;;;;;;;;;;;16.39;100.00;100160.13;5059938;28;20011;-87
2023/09/18 04:58:19;;;;;;;;;;;;;;;;;;;;;
2023/09/18 05:01:05;;;;;;;;;;;;;;;16.42;100.00;100154.56;5050680;28;19986;-85
2023/09/18 05:45:40;;;;;;;;;;;;;;;16.68;100.00;100159.56;5812674;23;19934;-79
2023/09/18 05:48:31;;;;;;;;;;;;;;;16.76;100.00;100174.13;4984697;28;19984;-85
2023/09/18 05:51:17;;;;;;;;;;;;;;;16.82;100.00;100173.63;4981645;28;19936;-84
2023/09/18 05:54:05;;;;;;;;;;;;;;;16.86;100.00;100161.72;4975584;28;19925;-82
2023/09/18 05:56:51;;;;;;;;;;;;;;;16.92;100.00;100168.38;5001584;28;20379;-83
2023/09/18 05:59:38;;;;;;;;;;;;;;;16.96;100.00;100173.31;4988000;28;19933;-79
2023/09/18 06:02:26;;;;;;;;;;;;;;;17.01;100.00;100162.28;4965130;28;19930;-82
2023/09/18 06:05:12;;;;;;;;;;;;;;;17.07;100.00;100163.59;4970324;28;19988;-83
2023/09/18 06:07:58;;;;;;;;;;;;;;;17.12;100.00;100164.06;4950104;28;19930;-83
2023/09/18 06:10:44;;;;;;;;;;;;;;;17.13;100.00;100155.06;4961896;28;19930;-85
2023/09/18 06:13:29;;;;;;;;;;;;;;;17.13;100.00;100152.38;4948794;28;19936;-87
2023/09/18 06:19:00;;;;;;;;;;;;;;;17.07;100.00;100142.22;5164348;23;19929;-90
2023/09/18 06:21:45;;;;;;;;;;;;;;;17.05;100.00;100149.53;5007233;28;19925;-90
2023/09/18 06:24:31;;;;;;;;;;;;;;;17.03;100.00;100148.78;5033099;28;19937;-90
2023/09/18 06:27:31;;;;;;;;;;;;;;;17.03;100.00;100146.97;5019769;28;19935;-96
2023/09/18 06:30:17;;;;;;;;;;;;;;;17.02;100.00;100160.47;5039293;28;19925;-95
2023/09/18 06:33:06;;;;;;;;;;;;;;;17.03;100.00;100159.47;5157570;23;19930;-94
2023/09/18 06:35:54;;;;;;;;;;;;;;;17.03;100.00;100160.34;5002502;28;19913;-96
2023/09/18 06:38:40;;;;;;;;;;;;;;;17.04;100.00;100148.66;5003922;28;19928;-85
2023/09/18 06:41:26;;;;;;;;;;;;;;;17.05;100.00;100160.22;5006275;28;20411;-85
2023/09/18 06:44:15;;;;;;;;;;;;;;;17.04;100.00;100158.50;4990708;28;19930;-84
2023/09/18 06:47:00;;;;;;;;;;;;;;;17.03;100.00;100136.28;4978657;28;19960;-83
2023/09/18 06:49:49;;;;;;;;;;;;;;;16.97;100.00;100145.63;4991700;28;19949;-83
2023/09/18 06:52:34;;;;;;;;;;;;;;;16.93;100.00;100141.50;4977287;28;19921;-83
2023/09/18 06:55:20;;;;;;;;;;;;;;;16.88;100.00;100130.34;4984047;28;19929;-84
2023/09/18 06:58:06;;;;;;;;;;;;;;;16.85;100.00;100114.59;4998269;28;19929;-85
2023/09/18 07:00:52;;;;;;;;;;;;;;;16.83;100.00;100120.03;4970956;28;19933;-85
2023/09/18 07:03:40;;;;;;;;;;;;;;;16.81;100.00;100107.78;4997412;28;20012;-84
2023/09/18 07:06:25;;;;;;;;;;;;;;;16.79;100.00;100113.25;4986743;28;19937;-84
2023/09/18 07:09:14;;;;;;;;;;;;;;;16.78;100.00;100116.06;4989597;28;19936;-85
2023/09/18 07:12:00;;;;;;;;;;;;;;;16.75;100.00;100125.19;5002555;28;20044;-86
2023/09/18 07:14:46;;;;;;;;;;;;;;;16.75;100.00;100143.03;5001277;28;19929;-86
2023/09/18 07:17:32;;;;;;;;;;;;;;;16.75;100.00;100148.38;4992732;28;20442;-87
2023/09/18 07:20:17;;;;;;;;;;;;;;;16.74;100.00;100141.34;4977626;28;19925;-86
2023/09/18 07:23:03;;;;;;;;;;;;;;;16.74;100.00;100136.00;4990812;28;19937;-84
2023/09/18 07:25:48;;;;;;;;;;;;;;;16.77;100.00;100133.09;4976289;28;20881;-86
2023/09/18 07:28:34;;;;;;;;;;;;;;;16.77;100.00;100133.09;4974565;28;19947;-84
2023/09/18 07:31:20;;;;;;;;;;;;;;;16.78;100.00;100127.59;4989390;28;20458;-85
2023/09/18 07:34:06;;;;;;;;;;;;;;;16.80;100.00;100128.34;4983595;28;20625;-86
2023/09/18 07:36:55;;;;;;;;;;;;;;;16.81;100.00;100122.00;4966287;28;20557;-86
2023/09/18 07:39:43;;;;;;;;;;;;;;;16.82;100.00;100118.34;4981837;28;20384;-85
2023/09/18 07:42:29;;;;;;;;;;;;;;;16.83;100.00;100120.03;4983678;28;19952;-86
2023/09/18 07:45:15;;;;;;;;;;;;;;;16.84;100.00;100121.75;4983528;28;20666;-86
2023/09/18 07:48:08;;;;;;;;;;;;;;;16.87;100.00;100135.81;4985023;28;19929;-85
2023/09/18 07:50:55;;;;;;;;;;;;;;;16.87;100.00;100128.66;4985590;28;19926;-86
2023/09/18 07:53:40;;;;;;;;;;;;;;;16.89;100.00;100131.22;4972736;28;19926;-84
2023/09/18 07:56:27;;;;;;;;;;;;;;;16.90;100.00;100125.75;4981162;28;19980;-83
2023/09/18 07:59:14;;;;;;;;;;;;;;;16.91;100.00;100132.78;4982912;28;19934;-86
2023/09/18 08:02:00;;;;;;;;;;;;;;;16.92;100.00;100134.47;4982456;28;20788;-85
2023/09/18 08:04:45;;;;;;;;;;;;;;;16.93;100.00;100136.16;4983587;28;20898;-87
2023/09/18 08:07:31;;;;;;;;;;;;;;;16.96;100.00;100138.56;4983557;28;19929;-88
2023/09/18 08:10:17;;;;;;;;;;;;;;;16.99;100.00;100140.13;4982839;28;20377;-88
2023/09/18 08:13:03;;;;;;;;;;;;;;;16.99;100.00;100134.78;4982389;28;19930;-88
2023/09/18 08:15:49;;;;;;;;;;;;;;;17.02;100.00;100136.41;4968871;28;19952;-87
2023/09/18 08:18:40;;;;;;;;;;;;;;;17.06;100.00;100145.88;4985317;28;20020;-86
2023/09/18 08:21:28;;;;;;;;;;;;;;;17.12;100.00;100153.38;4981605;28;20028;-86
2023/09/18 08:24:14;;;;;;;;;;;;;;;17.18;100.00;100155.53;4980315;28;20581;-88
2023/09/18 08:27:03;;;;;;;;;;;;;;;17.25;100.00;100150.50;4982920;28;19937;-86
2023/09/18 08:29:48;;;;;;;;;;;;;;;17.31;100.00;100154.47;4971764;28;20031;-88
2023/09/18 08:32:34;;;;;;;;;;;;;;;17.36;100.00;100147.78;4974265;28;19937;-88
2023/09/18 08:35:22;;;;;;;;;;;;;;;17.39;100.00;100146.66;4997229;28;20415;-89
2023/09/18 08:38:08;;;;;;;;;;;;;;;17.43;100.00;100142.72;4977316;28;19937;-88
2023/09/18 08:40:54;;;;;;;;;;;;;;;17.47;100.00;100132.59;4999875;28;19925;-89
2023/09/18 08:43:40;;;;;;;;;;;;;;;17.53;100.00;100117.88;4998568;28;19925;-93
2023/09/18 08:46:26;;;;;;;;;;;;;;;17.58;100.00;100121.84;5008694;28;19926;-91
2023/09/18 08:49:22;;;;;;;;;;;;;;;17.64;100.00;100128.47;4991351;28;19917;-93
2023/09/18 08:55:02;;;;;;;;;;;;;;;17.79;100.00;100142.34;5040346;23;19940;-94
2023/09/18 08:57:48;;;;;;;;;;;;;;;17.84;100.00;100144.63;4970307;28;19957;-92
2023/09/18 09:00:36;;;;;;;;;;;;;;;17.87;100.00;100145.19;4975468;28;19921;-94
2023/09/18 09:03:22;;;;;;;;;;;;;;;17.92;100.00;100134.94;4964886;28;19922;-94
2023/09/18 09:06:09;;;;;;;;;;;;;;;17.95;100.00;100146.34;4964186;28;19934;-95
2023/09/18 09:08:54;;;;;;;;;;;;;;;17.97;100.00;100150.59;4964809;28;19941;-95
2023/09/18 09:11:47;;;;;;;;;;;;;;;18.02;100.00;100150.19;4962571;28;20005;-95
2023/09/18 09:14:36;;;;;;;;;;;;;;;18.03;100.00;100162.63;4968632;28;20025;-96
2023/09/18 09:17:24;;;;;;;;;;;;;;;18.04;100.00;100151.75;4962017;28;19930;-94
2023/09/18 09:20:11;;;;;;;;;;;;;;;18.07;100.00;100160.56;4948945;28;19934;-91
2023/09/18 09:23:01;;;;;;;;;;;;;;;18.15;100.00;100158.03;4961958;28;20337;-93
2023/09/18 09:25:47;;;;;;;;;;;;;;;18.25;100.00;100158.06;4963011;28;20417;-93
2023/09/18 09:28:33;;;;;;;;;;;;;;;18.37;100.00;100156.13;4959154;28;19930;-90
2023/09/18 09:31:28;;;;;;;;;;;;;;;18.53;100.00;100161.78;4961823;28;19984;-91
2023/09/18 09:34:26;;;;;;;;;;;;;;;18.68;100.00;100169.44;4965328;28;19922;-93
2023/09/18 09:37:14;;;;;;;;;;;;;;;18.73;100.00;100168.03;4952361;28;19930;-92
2023/09/18 09:40:08;;;;;;;;;;;;;;;18.80;100.00;100176.34;4942484;28;20057;-90
2023/09/18 09:43:00;;;;;;;;;;;;;;;18.82;100.00;100179.75;4969633;28;19926;-93
2023/09/18 09:45:46;;;;;;;;;;;;;;;18.81;100.00;100178.06;4977664;28;20378;-92
2023/09/18 09:48:32;;;;;;;;;;;;;;;18.84;100.00;100190.31;4965780;28;19926;-92
2023/09/18 09:51:21;;;;;;;;;;;;;;;18.85;100.00;100181.31;4945727;28;19929;-89
2023/09/18 09:54:07;;;;;;;;;;;;;;;18.83;100.00;100184.13;4961039;28;20351;-92
2023/09/18 09:56:56;;;;;;;;;;;;;;;18.81;100.00;100190.59;4960404;28;19941;-96
2023/09/18 09:59:44;;;;;;;;;;;;;;;18.81;100.00;100199.50;4965493;28;20048;-89
2023/09/18 10:02:30;;;;;;;;;;;;;;;18.81;100.00;100207.56;4962319;28;19926;-90
2023/09/18 10:05:16;;;;;;;;;;;;;;;18.78;100.00;100207.00;4972310;28;20449;-91
2023/09/18 10:08:04;;;;;;;;;;;;;;;18.80;100.00;100207.69;4963064;28;20001;-88
2023/09/18 10:10:51;;;;;;;;;;;;;;;18.89;100.00;100214.06;4967832;28;19969;-90
2023/09/18 10:13:59;;;;;;;;;;;;;;;19.00;100.00;100200.50;4961485;28;19930;-92
2023/09/18 10:16:48;;;;;;;;;;;;;;;19.04;100.00;100204.63;4974252;28;19922;-89
2023/09/18 10:19:45;;;;;;;;;;;;;;;19.06;100.00;100209.88;4948603;28;19922;-92
2023/09/18 10:22:37;;;;;;;;;;;;;;;19.10;100.00;100222.84;4952904;28;19937;-95
2023/09/18 10:25:31;;;;;;;;;;;;;;;19.13;100.00;100219.03;4958889;28;19932;-91
2023/09/18 10:28:17;;;;;;;;;;;;;;;19.16;100.00;100212.56;4977982;28;21497;-90
2023/09/18 10:31:03;;;;;;;;;;;;;;;19.14;100.00;100202.78;4974727;28;19928;-89
2023/09/18 10:33:50;;;;;;;;;;;;;;;19.14;100.00;100202.78;4958091;28;19988;-85
2023/09/18 10:36:35;;;;;;;;;;;;;;;19.22;100.00;100211.97;4975243;28;19992;-90
2023/09/18 10:39:24;;;;;;;;;;;;;;;19.27;100.00;100215.94;4972814;28;19941;-89
2023/09/18 10:42:10;;;;;;;;;;;;;;;19.30;100.00;100214.81;4975332;28;20377;-89
2023/09/18 10:44:56;;;;;;;;;;;;;;;19.36;100.00;100216.06;4968910;28;19921;-87
2023/09/18 10:47:43;;;;;;;;;;;;;;;19.46;100.00;100194.56;4962565;28;19932;-82
2023/09/18 10:50:29;;;;;;;;;;;;;;;19.54;100.00;100208.13;4978935;28;19953;-90
2023/09/18 10:53:14;;;;;;;;;;;;;;;19.54;100.00;100203.63;4964726;28;19941;-88
2023/09/18 10:56:06;;;;;;;;;;;;;;;19.46;100.00;100194.56;4978330;28;19922;-93
2023/09/18 10:58:58;;;;;;;;;;;;;;;19.48;100.00;100192.59;4985319;28;19926;-90
2023/09/18 11:01:44;;;;;;;;;;;;;;;19.54;100.00;100194.69;4974848;28;19945;-88
2023/09/18 11:04:30;;;;;;;;;;;;;;;19.59;100.00;100195.13;4967939;28;20415;-86
2023/09/18 11:07:22;;;;;;;;;;;;;;;19.63;100.00;100195.69;4973061;28;19926;-89
2023/09/18 11:10:26;;;;;;;;;;;;;;;19.73;100.00;100201.03;4948001;28;19995;-88
2023/09/18 11:13:13;;;;;;;;;;;;;;;19.80;100.00;100203.00;4962061;28;19993;-90
2023/09/18 11:16:03;;;;;;;;;;;;;;;19.85;100.00;100212.44;4958131;28;19924;-89
2023/09/18 11:19:05;;;;;;;;;;;;;;;19.89;100.00;100217.34;4964763;28;19922;-93
2023/09/18 11:21:56;;;;;;;;;;;;;;;19.88;100.00;100207.63;4983316;28;19906;-93
2023/09/18 11:24:42;;;;;;;;;;;;;;;19.80;100.00;100207.50;4967760;28;19930;-90
2023/09/18 11:27:30;;;;;;;;;;;;;;;19.60;100.00;100204.88;4965683;28;19922;-93
2023/09/18 11:30:17;;;;;;;;;;;;;;;19.44;100.00;100223.41;4966410;28;19926;-92
2023/09/18 11:33:06;;;;;;;;;;;;;;;19.32;100.00;100226.22;4963612;28;19936;-94
2023/09/18 11:35:58;;;;;;;;;;;;;;;19.26;100.00;100224.13;4976315;28;19985;-95
2023/09/18 11:39:07;;;;;;;;;;;;;;;19.26;100.00;100205.34;4969132;28;19932;-85
2023/09/18 11:41:57;;;;;;;;;;;;;;;19.35;100.00;100219.75;4952698;28;19926;-93
2023/09/18 11:44:46;;;;;;;;;;;;;;;19.50;100.00;100212.09;4963100;28;19933;-88
2023/09/18 11:47:32;;;;;;;;;;;;;;;19.72;100.00;100191.28;4957438;28;19973;-88
2023/09/18 11:50:21;;;;;;;;;;;;;;;19.86;100.00;100204.25;4947830;28;19930;-88
2023/09/18 11:53:07;;;;;;;;;;;;;;;19.92;100.00;100206.34;4954992;28;19945;-91
2023/09/18 11:55:53;;;;;;;;;;;;;;;19.97;100.00;100218.50;4956340;28;19963;-90
2023/09/18 11:58:54;;;;;;;;;;;;;;;19.95;100.00;100211.44;4955086;28;19930;-94
2023/09/18 12:01:40;;;;;;;;;;;;;;;19.97;100.00;100215.81;4973687;28;19934;-93
2023/09/18 12:04:29;;;;;;;;;;;;;;;19.99;100.00;100208.47;4947057;28;19926;-93
2023/09/18 12:07:15;;;;;;;;;;;;;;;20.02;100.00;100217.09;4969247;28;19926;-95
2023/09/18 12:10:04;;;;;;;;;;;;;;;20.06;100.00;100206.88;4948861;28;20416;-91
2023/09/18 12:12:51;;;;;;;;;;;;;;;20.08;100.00;100210.25;4969466;28;19933;-92
2023/09/18 12:15:39;;;;;;;;;;;;;;;20.11;100.00;100209.13;4961448;28;20584;-91
2023/09/18 12:18:32;;;;;;;;;;;;;;;20.14;100.00;100204.31;4962916;28;20002;-86
2023/09/18 12:21:18;;;;;;;;;;;;;;;20.12;100.00;100208.13;4958169;28;20330;-93
2023/09/18 12:24:04;;;;;;;;;;;;;;;20.10;100.00;100207.44;4961274;28;19957;-92
2023/09/18 12:26:50;;;;;;;;;;;;;;;20.12;100.00;100200.94;4955253;28;20301;-86
2023/09/18 12:29:36;;;;;;;;;;;;;;;20.15;100.00;100210.53;4967314;28;19933;-92
2023/09/18 12:32:22;;;;;;;;;;;;;;;20.12;100.00;100214.34;4939452;28;19937;-89
2023/09/18 12:35:13;;;;;;;;;;;;;;;20.07;100.00;100220.19;4972584;28;19929;-91
2023/09/18 12:38:02;;;;;;;;;;;;;;;20.06;100.00;100212.25;4951882;28;20629;-90
2023/09/18 12:40:52;;;;;;;;;;;;;;;20.05;100.00;100218.63;4939029;28;20001;-88
2023/09/18 12:43:43;;;;;;;;;;;;;;;20.04;100.00;100217.78;4942473;28;19938;-91
2023/09/18 12:46:29;;;;;;;;;;;;;;;20.03;100.00;100213.41;4957518;28;19958;-90
2023/09/18 12:49:25;;;;;;;;;;;;;;;20.06;100.00;100213.09;4958915;28;19937;-89
2023/09/18 12:52:11;;;;;;;;;;;;;;;20.11;100.00;100218.03;4963459;28;19930;-94
2023/09/18 12:54:58;;;;;;;;;;;;;;;20.16;100.00;100207.69;4952309;28;19929;-87
2023/09/18 12:57:44;;;;;;;;;;;;;;;20.20;100.00;100216.28;4968576;28;19930;-85
2023/09/18 13:00:30;;;;;;;;;;;;;;;20.16;100.00;100217.59;4947818;28;20049;-95
2023/09/18 13:03:18;;;;;;;;;;;;;;;20.15;100.00;100208.69;4944779;28;20392;-92
2023/09/18 13:06:08;;;;;;;;;;;;;;;20.17;100.00;100204.03;4957865;28;20055;-95
2023/09/18 13:08:53;;;;;;;;;;;;;;;20.20;100.00;100208.22;4974097;28;19930;-89
2023/09/18 13:11:55;;;;;;;;;;;;;;;20.30;100.00;100202.81;4972099;28;20004;-86
2023/09/18 13:14:57;;;;;;;;;;;;;;;20.34;100.00;100193.47;4961452;28;20024;-91
2023/09/18 13:17:47;;;;;;;;;;;;;;;20.37;100.00;100177.03;4959592;28;19933;-86
2023/09/18 13:20:32;;;;;;;;;;;;;;;20.42;100.00;100182.81;4973063;28;20034;-88
2023/09/18 13:23:18;;;;;;;;;;;;;;;20.45;100.00;100176.28;4959220;28;19930;-85
2023/09/18 13:26:05;;;;;;;;;;;;;;;20.48;100.00;100194.78;4964112;28;19953;-87
2023/09/18 13:28:50;;;;;;;;;;;;;;;20.55;100.00;100197.72;4953966;28;19933;-89
2023/09/18 13:31:37;;;;;;;;;;;;;;;20.55;100.00;100186.97;4956149;28;19992;-88
2023/09/18 13:34:23;;;;;;;;;;;;;;;20.45;100.00;100190.59;4968934;28;20689;-87
2023/09/18 13:37:08;;;;;;;;;;;;;;;20.31;100.00;100189.22;4956115;28;20077;-89
2023/09/18 13:39:54;;;;;;;;;;;;;;;20.21;100.00;100199.19;4963946;28;20382;-93
2023/09/18 13:42:40;;;;;;;;;;;;;;;20.12;100.00;100200.06;4972642;28;19938;-91
2023/09/18 13:45:25;;;;;;;;;;;;;;;20.02;100.00;100213.53;4976021;28;19922;-95
2023/09/18 13:48:12;;;;;;;;;;;;;;;19.82;100.00;100210.88;4960194;28;19940;-87
2023/09/18 13:50:58;;;;;;;;;;;;;;;19.58;100.00;100195.25;4957821;28;19934;-87
2023/09/18 13:53:43;;;;;;;;;;;;;;;19.38;100.00;100188.09;4954605;28;20017;-87
2023/09/18 13:56:29;;;;;;;;;;;;;;;19.29;100.00;100188.09;4971060;28;20429;-89
2023/09/18 13:59:17;;;;;;;;;;;;;;;19.26;100.00;100183.88;4958008;28;19930;-89
2023/09/18 14:02:04;;;;;;;;;;;;;;;19.32;100.00;100169.03;4957483;28;19977;-86
2023/09/18 14:04:50;;;;;;;;;;;;;;;19.43;100.00;100171.56;4957541;28;19974;-87
2023/09/18 14:07:38;;;;;;;;;;;;;;;19.55;100.00;100164.19;4959254;28;20295;-89
2023/09/18 14:10:24;;;;;;;;;;;;;;;19.61;100.00;100160.91;4972191;28;19933;-87
2023/09/18 14:13:09;;;;;;;;;;;;;;;19.66;100.00;100152.41;4957311;28;19997;-87
2023/09/18 14:15:55;;;;;;;;;;;;;;;19.72;100.00;100140.25;4970190;28;19926;-88
2023/09/18 14:18:42;;;;;;;;;;;;;;;19.82;100.00;100146.44;4969625;28;19930;-87
2023/09/18 14:21:28;;;;;;;;;;;;;;;19.98;100.00;100142.31;4955043;28;20029;-87
2023/09/18 14:24:15;;;;;;;;;;;;;;;20.11;100.00;100137.44;4943384;28;19934;-84
2023/09/18 14:27:01;;;;;;;;;;;;;;;20.21;100.00;100132.03;4943369;28;20803;-88
2023/09/18 14:29:52;;;;;;;;;;;;;;;20.27;100.00;100119.81;4958519;28;20842;-85
2023/09/18 14:32:38;;;;;;;;;;;;;;;20.34;100.00;100121.75;4957902;28;19990;-89
2023/09/18 14:35:24;;;;;;;;;;;;;;;20.40;100.00;100119.44;4965007;28;19921;-88
2023/09/18 14:38:14;;;;;;;;;;;;;;;20.39;100.00;100120.44;4975286;28;19956;-86
2023/09/18 14:41:02;;;;;;;;;;;;;;;20.37;100.00;100111.69;4974733;28;20025;-90
2023/09/18 14:43:48;;;;;;;;;;;;;;;20.37;100.00;100115.22;4959191;28;19922;-86
2023/09/18 14:46:34;;;;;;;;;;;;;;;20.40;100.00;100111.38;4960765;28;19965;-86
2023/09/18 14:49:19;;;;;;;;;;;;;;;20.43;100.00;100113.78;4954728;28;19936;-88
2023/09/18 14:52:05;;;;;;;;;;;;;;;20.49;100.00;100095.19;4950378;28;19930;-87
2023/09/18 14:54:52;;;;;;;;;;;;;;;20.53;100.00;100084.13;4967746;28;19934;-89
2023/09/18 14:57:37;;;;;;;;;;;;;;;20.59;100.00;100088.91;4958131;28;19953;-88
2023/09/18 15:00:25;;;;;;;;;;;;;;;20.63;100.00;100087.56;4960537;28;19934;-88
2023/09/18 15:03:11;;;;;;;;;;;;;;;20.62;100.00;100078.69;4957695;28;20024;-89
2023/09/18 15:05:56;;;;;;;;;;;;;;;20.59;100.00;100078.97;4971053;28;19936;-88
2023/09/18 15:08:42;;;;;;;;;;;;;;;20.57;100.00;100072.06;4972628;28;20396;-87
2023/09/18 15:11:28;;;;;;;;;;;;;;;20.49;100.00;100072.84;4955662;28;19956;-89
2023/09/18 15:14:13;;;;;;;;;;;;;;;20.40;100.00;100063.00;4946281;28;19941;-91